sensor_id;sensor_type;location;lat;lon;timestamp;temperature;humidity
14095;DHT22;18096;48.142;16.290;2023-03-23T00:02:26;10.80;82.60
14095;DHT22;18096;48.142;16.290;2023-03-23T00:04:52;10.80;82.90
14095;DHT22;18096;48.142;16.290;2023-03-23T00:07:20;10.70;82.80
14095;DHT22;18096;48.142;16.290;2023-03-23T00:09:53;10.70;82.90
14095;DHT22;18096;48.142;16.290;2023-03-23T00:12:23;10.60;83.20
14095;DHT22;18096;48.142;16.290;2023-03-23T00:15:03;10.60;83.20
14095;DHT22;18096;48.142;16.290;2023-03-23T00:17:30;10.60;83.60
14095;DHT22;18096;48.142;16.290;2023-03-23T00:19:58;10.50;83.50
14095;DHT22;18096;48.142;16.290;2023-03-23T00:22:27;10.50;83.80
14095;DHT22;18096;48.142;16.290;2023-03-23T00:24:53;10.50;83.80
14095;DHT22;18096;48.142;16.290;2023-03-23T00:27:20;10.50;84.00
14095;DHT22;18096;48.142;16.290;2023-03-23T00:29:51;10.40;84.00
14095;DHT22;18096;48.142;16.290;2023-03-23T00:32:22;10.40;84.10
14095;DHT22;18096;48.142;16.290;2023-03-23T00:34:56;10.40;84.30
14095;DHT22;18096;48.142;16.290;2023-03-23T00:37:24;10.30;84.50
14095;DHT22;18096;48.142;16.290;2023-03-23T00:39:50;10.30;85.00
14095;DHT22;18096;48.142;16.290;2023-03-23T00:42:17;10.30;85.30
14095;DHT22;18096;48.142;16.290;2023-03-23T00:44:43;10.20;85.60
14095;DHT22;18096;48.142;16.290;2023-03-23T00:47:10;10.20;85.20
14095;DHT22;18096;48.142;16.290;2023-03-23T00:49:36;10.20;85.30
14095;DHT22;18096;48.142;16.290;2023-03-23T00:52:03;10.20;85.30
14095;DHT22;18096;48.142;16.290;2023-03-23T00:54:29;10.20;85.30
14095;DHT22;18096;48.142;16.290;2023-03-23T00:56:55;10.10;85.50
14095;DHT22;18096;48.142;16.290;2023-03-23T00:59:21;10.10;85.50
14095;DHT22;18096;48.142;16.290;2023-03-23T01:01:48;10.10;85.30
14095;DHT22;18096;48.142;16.290;2023-03-23T01:04:14;10.10;85.30
14095;DHT22;18096;48.142;16.290;2023-03-23T01:06:42;10.10;85.40
14095;DHT22;18096;48.142;16.290;2023-03-23T01:09:13;10.10;85.30
14095;DHT22;18096;48.142;16.290;2023-03-23T01:11:45;10.10;85.40
14095;DHT22;18096;48.142;16.290;2023-03-23T01:14:13;10.00;85.50
14095;DHT22;18096;48.142;16.290;2023-03-23T01:16:40;10.00;85.50
14095;DHT22;18096;48.142;16.290;2023-03-23T01:19:05;10.00;85.70
14095;DHT22;18096;48.142;16.290;2023-03-23T01:21:31;10.00;85.80
14095;DHT22;18096;48.142;16.290;2023-03-23T01:23:57;10.00;85.90
14095;DHT22;18096;48.142;16.290;2023-03-23T01:26:25;10.00;85.90
14095;DHT22;18096;48.142;16.290;2023-03-23T01:28:51;10.00;85.90
14095;DHT22;18096;48.142;16.290;2023-03-23T01:31:19;9.90;87.00
14095;DHT22;18096;48.142;16.290;2023-03-23T01:33:45;9.90;87.20
14095;DHT22;18096;48.142;16.290;2023-03-23T01:36:14;9.80;87.30
14095;DHT22;18096;48.142;16.290;2023-03-23T01:38:42;9.80;87.60
14095;DHT22;18096;48.142;16.290;2023-03-23T01:41:07;9.70;87.70
14095;DHT22;18096;48.142;16.290;2023-03-23T01:43:33;9.70;87.90
14095;DHT22;18096;48.142;16.290;2023-03-23T01:45:59;9.70;88.10
14095;DHT22;18096;48.142;16.290;2023-03-23T01:48:26;9.60;88.30
14095;DHT22;18096;48.142;16.290;2023-03-23T01:51:14;9.60;88.30
14095;DHT22;18096;48.142;16.290;2023-03-23T01:53:57;9.60;88.40
14095;DHT22;18096;48.142;16.290;2023-03-23T01:56:28;9.60;88.50
14095;DHT22;18096;48.142;16.290;2023-03-23T01:58:58;9.60;88.70
14095;DHT22;18096;48.142;16.290;2023-03-23T02:01:25;9.60;88.70
14095;DHT22;18096;48.142;16.290;2023-03-23T02:03:52;9.60;88.80
14095;DHT22;18096;48.142;16.290;2023-03-23T02:06:19;9.60;88.70
14095;DHT22;18096;48.142;16.290;2023-03-23T02:08:48;9.70;88.70
14095;DHT22;18096;48.142;16.290;2023-03-23T02:11:17;9.70;88.70
14095;DHT22;18096;48.142;16.290;2023-03-23T02:13:44;9.60;88.70
14095;DHT22;18096;48.142;16.290;2023-03-23T02:16:28;9.60;88.80
14095;DHT22;18096;48.142;16.290;2023-03-23T02:22:24;9.60;88.80
14095;DHT22;18096;48.142;16.290;2023-03-23T02:30:37;9.50;89.30
14095;DHT22;18096;48.142;16.290;2023-03-23T02:33:29;9.60;89.20
14095;DHT22;18096;48.142;16.290;2023-03-23T02:36:19;9.60;89.20
14095;DHT22;18096;48.142;16.290;2023-03-23T02:41:51;9.50;89.00
14095;DHT22;18096;48.142;16.290;2023-03-23T02:44:19;9.50;89.10
14095;DHT22;18096;48.142;16.290;2023-03-23T02:46:47;9.40;89.20
14095;DHT22;18096;48.142;16.290;2023-03-23T02:49:15;9.40;89.40
14095;DHT22;18096;48.142;16.290;2023-03-23T02:51:44;9.40;89.40
14095;DHT22;18096;48.142;16.290;2023-03-23T02:54:12;9.40;89.60
14095;DHT22;18096;48.142;16.290;2023-03-23T02:56:39;9.30;89.80
14095;DHT22;18096;48.142;16.290;2023-03-23T02:59:06;9.30;90.00
14095;DHT22;18096;48.142;16.290;2023-03-23T03:04:14;9.20;90.40
14095;DHT22;18096;48.142;16.290;2023-03-23T03:07:01;9.20;90.20
14095;DHT22;18096;48.142;16.290;2023-03-23T03:09:55;9.10;90.20
14095;DHT22;18096;48.142;16.290;2023-03-23T03:17:41;9.10;90.40
14095;DHT22;18096;48.142;16.290;2023-03-23T03:20:10;9.10;90.50
14095;DHT22;18096;48.142;16.290;2023-03-23T03:22:41;9.00;90.60
14095;DHT22;18096;48.142;16.290;2023-03-23T03:25:09;9.00;90.80
14095;DHT22;18096;48.142;16.290;2023-03-23T03:27:35;9.00;90.70
14095;DHT22;18096;48.142;16.290;2023-03-23T03:30:03;9.00;90.90
14095;DHT22;18096;48.142;16.290;2023-03-23T03:32:38;9.00;90.70
14095;DHT22;18096;48.142;16.290;2023-03-23T03:35:06;9.00;90.70
14095;DHT22;18096;48.142;16.290;2023-03-23T03:37:34;9.00;90.80
14095;DHT22;18096;48.142;16.290;2023-03-23T03:40:04;9.00;90.80
14095;DHT22;18096;48.142;16.290;2023-03-23T03:42:39;8.90;90.80
14095;DHT22;18096;48.142;16.290;2023-03-23T03:45:07;8.90;91.00
14095;DHT22;18096;48.142;16.290;2023-03-23T03:47:33;8.90;91.10
14095;DHT22;18096;48.142;16.290;2023-03-23T03:49:59;8.90;91.10
14095;DHT22;18096;48.142;16.290;2023-03-23T03:52:25;8.90;91.10
14095;DHT22;18096;48.142;16.290;2023-03-23T03:54:50;8.90;91.10
14095;DHT22;18096;48.142;16.290;2023-03-23T03:57:16;8.90;91.20
14095;DHT22;18096;48.142;16.290;2023-03-23T03:59:43;8.90;91.30
14095;DHT22;18096;48.142;16.290;2023-03-23T04:02:09;8.80;91.20
14095;DHT22;18096;48.142;16.290;2023-03-23T04:04:39;8.90;91.20
14095;DHT22;18096;48.142;16.290;2023-03-23T04:07:05;8.80;91.20
14095;DHT22;18096;48.142;16.290;2023-03-23T04:09:31;8.80;91.20
14095;DHT22;18096;48.142;16.290;2023-03-23T04:11:57;8.80;91.30
14095;DHT22;18096;48.142;16.290;2023-03-23T04:14:22;8.80;91.30
14095;DHT22;18096;48.142;16.290;2023-03-23T04:16:48;8.70;91.40
14095;DHT22;18096;48.142;16.290;2023-03-23T04:19:17;8.70;91.50
14095;DHT22;18096;48.142;16.290;2023-03-23T04:21:44;8.70;91.60
14095;DHT22;18096;48.142;16.290;2023-03-23T04:24:15;8.70;91.50
14095;DHT22;18096;48.142;16.290;2023-03-23T04:26:40;8.70;91.60
14095;DHT22;18096;48.142;16.290;2023-03-23T04:29:08;8.70;91.70
14095;DHT22;18096;48.142;16.290;2023-03-23T04:31:34;8.70;91.60
14095;DHT22;18096;48.142;16.290;2023-03-23T04:34:00;8.70;91.70
14095;DHT22;18096;48.142;16.290;2023-03-23T04:36:27;8.70;91.80
14095;DHT22;18096;48.142;16.290;2023-03-23T04:38:55;8.70;91.80
14095;DHT22;18096;48.142;16.290;2023-03-23T04:41:22;8.70;91.80
14095;DHT22;18096;48.142;16.290;2023-03-23T04:43:48;8.70;91.80
14095;DHT22;18096;48.142;16.290;2023-03-23T04:46:18;8.70;91.80
14095;DHT22;18096;48.142;16.290;2023-03-23T04:48:44;8.70;91.80
14095;DHT22;18096;48.142;16.290;2023-03-23T04:51:11;8.70;91.80
14095;DHT22;18096;48.142;16.290;2023-03-23T04:53:40;8.80;91.70
14095;DHT22;18096;48.142;16.290;2023-03-23T04:56:07;8.70;91.70
14095;DHT22;18096;48.142;16.290;2023-03-23T04:58:32;8.70;91.80
14095;DHT22;18096;48.142;16.290;2023-03-23T05:01:00;8.70;91.80
14095;DHT22;18096;48.142;16.290;2023-03-23T05:03:26;8.70;91.80
14095;DHT22;18096;48.142;16.290;2023-03-23T05:05:53;8.70;91.80
14095;DHT22;18096;48.142;16.290;2023-03-23T05:08:25;8.70;91.90
14095;DHT22;18096;48.142;16.290;2023-03-23T05:10:55;8.70;92.00
14095;DHT22;18096;48.142;16.290;2023-03-23T05:13:22;8.70;92.10
14095;DHT22;18096;48.142;16.290;2023-03-23T05:15:48;8.70;92.10
14095;DHT22;18096;48.142;16.290;2023-03-23T05:18:14;8.70;92.10
14095;DHT22;18096;48.142;16.290;2023-03-23T05:20:40;8.70;92.20
14095;DHT22;18096;48.142;16.290;2023-03-23T05:23:08;8.70;92.20
14095;DHT22;18096;48.142;16.290;2023-03-23T05:25:37;8.70;92.30
14095;DHT22;18096;48.142;16.290;2023-03-23T05:28:09;8.70;92.40
14095;DHT22;18096;48.142;16.290;2023-03-23T05:30:38;8.70;92.30
14095;DHT22;18096;48.142;16.290;2023-03-23T05:33:04;8.80;92.40
14095;DHT22;18096;48.142;16.290;2023-03-23T05:35:30;8.80;92.30
14095;DHT22;18096;48.142;16.290;2023-03-23T05:37:56;8.90;92.30
14095;DHT22;18096;48.142;16.290;2023-03-23T05:40:23;8.90;92.30
14095;DHT22;18096;48.142;16.290;2023-03-23T05:42:51;8.90;92.40
14095;DHT22;18096;48.142;16.290;2023-03-23T05:45:17;9.00;92.30
14095;DHT22;18096;48.142;16.290;2023-03-23T05:47:43;9.10;92.20
14095;DHT22;18096;48.142;16.290;2023-03-23T05:50:10;9.10;92.20
14095;DHT22;18096;48.142;16.290;2023-03-23T05:52:36;9.10;92.20
14095;DHT22;18096;48.142;16.290;2023-03-23T05:55:03;9.20;92.30
14095;DHT22;18096;48.142;16.290;2023-03-23T05:57:29;9.20;92.30
14095;DHT22;18096;48.142;16.290;2023-03-23T05:59:55;9.30;92.30
14095;DHT22;18096;48.142;16.290;2023-03-23T06:02:23;9.40;92.20
14095;DHT22;18096;48.142;16.290;2023-03-23T06:04:50;9.50;91.80
14095;DHT22;18096;48.142;16.290;2023-03-23T06:07:25;9.60;91.70
14095;DHT22;18096;48.142;16.290;2023-03-23T06:09:52;9.70;91.60
14095;DHT22;18096;48.142;16.290;2023-03-23T06:12:17;9.70;91.60
14095;DHT22;18096;48.142;16.290;2023-03-23T06:14:47;9.80;91.60
14095;DHT22;18096;48.142;16.290;2023-03-23T06:17:17;9.80;91.40
14095;DHT22;18096;48.142;16.290;2023-03-23T06:19:43;9.90;91.40
14095;DHT22;18096;48.142;16.290;2023-03-23T06:22:10;9.90;91.40
14095;DHT22;18096;48.142;16.290;2023-03-23T06:24:36;10.00;91.00
14095;DHT22;18096;48.142;16.290;2023-03-23T06:27:02;10.10;90.80
14095;DHT22;18096;48.142;16.290;2023-03-23T06:29:30;10.10;90.70
14095;DHT22;18096;48.142;16.290;2023-03-23T06:31:59;10.20;90.70
14095;DHT22;18096;48.142;16.290;2023-03-23T06:34:25;10.20;90.70
14095;DHT22;18096;48.142;16.290;2023-03-23T06:36:51;10.20;90.70
14095;DHT22;18096;48.142;16.290;2023-03-23T06:39:17;10.30;90.70
14095;DHT22;18096;48.142;16.290;2023-03-23T06:41:43;10.40;90.60
14095;DHT22;18096;48.142;16.290;2023-03-23T06:44:09;10.50;90.60
14095;DHT22;18096;48.142;16.290;2023-03-23T06:46:39;10.60;90.60
14095;DHT22;18096;48.142;16.290;2023-03-23T06:49:06;10.70;90.50
14095;DHT22;18096;48.142;16.290;2023-03-23T06:51:31;10.80;90.30
14095;DHT22;18096;48.142;16.290;2023-03-23T06:53:57;11.00;90.10
14095;DHT22;18096;48.142;16.290;2023-03-23T06:56:23;11.00;90.00
14095;DHT22;18096;48.142;16.290;2023-03-23T06:58:49;11.10;90.00
14095;DHT22;18096;48.142;16.290;2023-03-23T07:01:15;11.20;90.00
14095;DHT22;18096;48.142;16.290;2023-03-23T07:03:41;11.20;90.20
14095;DHT22;18096;48.142;16.290;2023-03-23T07:06:08;11.30;90.00
14095;DHT22;18096;48.142;16.290;2023-03-23T07:08:34;11.30;89.90
14095;DHT22;18096;48.142;16.290;2023-03-23T07:10:59;11.40;89.50
14095;DHT22;18096;48.142;16.290;2023-03-23T07:13:25;11.50;89.40
14095;DHT22;18096;48.142;16.290;2023-03-23T07:15:52;11.60;89.00
14095;DHT22;18096;48.142;16.290;2023-03-23T07:18:18;11.60;88.70
14095;DHT22;18096;48.142;16.290;2023-03-23T07:20:50;11.60;88.70
14095;DHT22;18096;48.142;16.290;2023-03-23T07:23:16;11.70;88.50
14095;DHT22;18096;48.142;16.290;2023-03-23T07:25:43;11.70;88.10
14095;DHT22;18096;48.142;16.290;2023-03-23T07:28:09;11.80;88.10
14095;DHT22;18096;48.142;16.290;2023-03-23T07:30:34;11.90;88.20
14095;DHT22;18096;48.142;16.290;2023-03-23T07:33:04;11.90;88.00
14095;DHT22;18096;48.142;16.290;2023-03-23T07:35:31;11.90;88.00
14095;DHT22;18096;48.142;16.290;2023-03-23T07:37:57;12.00;87.40
14095;DHT22;18096;48.142;16.290;2023-03-23T07:40:22;12.10;87.00
14095;DHT22;18096;48.142;16.290;2023-03-23T07:42:53;12.20;86.80
14095;DHT22;18096;48.142;16.290;2023-03-23T07:45:19;12.20;86.60
14095;DHT22;18096;48.142;16.290;2023-03-23T07:47:45;12.30;86.40
14095;DHT22;18096;48.142;16.290;2023-03-23T07:50:11;12.30;86.10
14095;DHT22;18096;48.142;16.290;2023-03-23T07:52:38;12.30;86.10
14095;DHT22;18096;48.142;16.290;2023-03-23T07:55:06;12.40;86.30
14095;DHT22;18096;48.142;16.290;2023-03-23T07:57:33;12.50;86.10
14095;DHT22;18096;48.142;16.290;2023-03-23T07:59:59;12.50;85.60
14095;DHT22;18096;48.142;16.290;2023-03-23T08:02:25;12.60;85.60
14095;DHT22;18096;48.142;16.290;2023-03-23T08:04:52;12.70;85.40
14095;DHT22;18096;48.142;16.290;2023-03-23T08:07:19;12.70;85.40
14095;DHT22;18096;48.142;16.290;2023-03-23T08:09:46;12.70;85.50
14095;DHT22;18096;48.142;16.290;2023-03-23T08:12:13;12.80;85.30
14095;DHT22;18096;48.142;16.290;2023-03-23T08:14:39;12.90;85.20
14095;DHT22;18096;48.142;16.290;2023-03-23T08:17:07;12.90;85.00
14095;DHT22;18096;48.142;16.290;2023-03-23T08:19:34;13.00;84.90
14095;DHT22;18096;48.142;16.290;2023-03-23T08:22:03;13.00;85.00
14095;DHT22;18096;48.142;16.290;2023-03-23T08:24:30;13.10;85.20
14095;DHT22;18096;48.142;16.290;2023-03-23T08:26:56;13.10;85.20
14095;DHT22;18096;48.142;16.290;2023-03-23T08:29:21;13.10;85.10
14095;DHT22;18096;48.142;16.290;2023-03-23T08:31:47;13.10;85.10
14095;DHT22;18096;48.142;16.290;2023-03-23T08:34:13;13.10;85.00
14095;DHT22;18096;48.142;16.290;2023-03-23T08:36:39;13.10;85.20
14095;DHT22;18096;48.142;16.290;2023-03-23T08:39:05;13.10;85.40
14095;DHT22;18096;48.142;16.290;2023-03-23T08:41:31;13.10;85.50
14095;DHT22;18096;48.142;16.290;2023-03-23T08:43:57;13.10;85.50
14095;DHT22;18096;48.142;16.290;2023-03-23T08:46:23;13.10;85.40
14095;DHT22;18096;48.142;16.290;2023-03-23T08:48:49;13.10;85.10
14095;DHT22;18096;48.142;16.290;2023-03-23T08:51:14;13.10;85.30
14095;DHT22;18096;48.142;16.290;2023-03-23T08:53:40;13.10;85.40
14095;DHT22;18096;48.142;16.290;2023-03-23T08:56:10;13.20;86.10
14095;DHT22;18096;48.142;16.290;2023-03-23T08:58:38;13.30;85.50
14095;DHT22;18096;48.142;16.290;2023-03-23T09:01:06;13.30;85.10
14095;DHT22;18096;48.142;16.290;2023-03-23T09:03:35;13.40;85.20
14095;DHT22;18096;48.142;16.290;2023-03-23T09:06:03;13.50;84.60
14095;DHT22;18096;48.142;16.290;2023-03-23T09:08:29;13.50;84.20
14095;DHT22;18096;48.142;16.290;2023-03-23T09:10:59;13.60;84.00
14095;DHT22;18096;48.142;16.290;2023-03-23T09:13:25;13.60;84.00
14095;DHT22;18096;48.142;16.290;2023-03-23T09:15:51;13.70;84.10
14095;DHT22;18096;48.142;16.290;2023-03-23T09:18:18;13.80;83.90
14095;DHT22;18096;48.142;16.290;2023-03-23T09:20:44;13.90;83.50
14095;DHT22;18096;48.142;16.290;2023-03-23T09:23:12;13.90;83.40
14095;DHT22;18096;48.142;16.290;2023-03-23T09:25:38;14.00;83.20
14095;DHT22;18096;48.142;16.290;2023-03-23T09:28:04;14.10;83.10
14095;DHT22;18096;48.142;16.290;2023-03-23T09:30:31;14.20;82.80
14095;DHT22;18096;48.142;16.290;2023-03-23T09:33:00;14.20;82.40
14095;DHT22;18096;48.142;16.290;2023-03-23T09:35:30;14.30;82.10
14095;DHT22;18096;48.142;16.290;2023-03-23T09:37:57;14.40;81.80
14095;DHT22;18096;48.142;16.290;2023-03-23T09:50:56;14.80;80.70
14095;DHT22;18096;48.142;16.290;2023-03-23T09:53:35;14.90;80.60
14095;DHT22;18096;48.142;16.290;2023-03-23T09:56:11;15.00;80.60
14095;DHT22;18096;48.142;16.290;2023-03-23T09:58:57;15.10;80.00
14095;DHT22;18096;48.142;16.290;2023-03-23T10:01:34;15.20;79.70
14095;DHT22;18096;48.142;16.290;2023-03-23T10:04:23;15.30;79.40
14095;DHT22;18096;48.142;16.290;2023-03-23T10:06:50;15.40;79.40
14095;DHT22;18096;48.142;16.290;2023-03-23T10:09:18;15.50;79.10
14095;DHT22;18096;48.142;16.290;2023-03-23T10:17:44;15.70;78.50
14095;DHT22;18096;48.142;16.290;2023-03-23T10:25:43;16.10;78.70
14095;DHT22;18096;48.142;16.290;2023-03-23T10:28:16;16.10;78.70
14095;DHT22;18096;48.142;16.290;2023-03-23T10:30:49;16.30;78.90
14095;DHT22;18096;48.142;16.290;2023-03-23T10:33:29;16.30;78.30
14095;DHT22;18096;48.142;16.290;2023-03-23T10:36:01;16.40;78.40
14095;DHT22;18096;48.142;16.290;2023-03-23T10:38:40;16.50;78.60
14095;DHT22;18096;48.142;16.290;2023-03-23T10:41:12;16.60;78.30
14095;DHT22;18096;48.142;16.290;2023-03-23T10:43:39;16.60;78.40
14095;DHT22;18096;48.142;16.290;2023-03-23T10:46:29;16.70;78.50
14095;DHT22;18096;48.142;16.290;2023-03-23T10:49:01;16.80;77.80
14095;DHT22;18096;48.142;16.290;2023-03-23T10:51:36;16.90;77.80
14095;DHT22;18096;48.142;16.290;2023-03-23T10:54:04;17.00;76.90
14095;DHT22;18096;48.142;16.290;2023-03-23T10:56:41;17.00;76.00
14095;DHT22;18096;48.142;16.290;2023-03-23T10:59:34;17.10;75.90
14095;DHT22;18096;48.142;16.290;2023-03-23T11:02:02;17.20;75.70
14095;DHT22;18096;48.142;16.290;2023-03-23T11:04:35;17.30;75.90
14095;DHT22;18096;48.142;16.290;2023-03-23T11:07:03;17.40;75.20
14095;DHT22;18096;48.142;16.290;2023-03-23T11:09:50;17.50;74.20
14095;DHT22;18096;48.142;16.290;2023-03-23T11:12:18;17.60;74.10
14095;DHT22;18096;48.142;16.290;2023-03-23T11:14:44;17.70;73.60
14095;DHT22;18096;48.142;16.290;2023-03-23T11:17:25;17.80;73.50
14095;DHT22;18096;48.142;16.290;2023-03-23T11:19:52;17.90;72.30
14095;DHT22;18096;48.142;16.290;2023-03-23T11:22:25;18.00;72.30
14095;DHT22;18096;48.142;16.290;2023-03-23T11:24:54;18.00;71.60
14095;DHT22;18096;48.142;16.290;2023-03-23T11:27:21;18.20;71.60
14095;DHT22;18096;48.142;16.290;2023-03-23T11:29:56;18.30;71.40
14095;DHT22;18096;48.142;16.290;2023-03-23T11:32:27;18.30;70.30
14095;DHT22;18096;48.142;16.290;2023-03-23T11:35:02;18.40;69.40
14095;DHT22;18096;48.142;16.290;2023-03-23T11:37:42;18.50;69.20
14095;DHT22;18096;48.142;16.290;2023-03-23T11:45:21;18.60;69.10
14095;DHT22;18096;48.142;16.290;2023-03-23T11:48:10;18.70;69.40
14095;DHT22;18096;48.142;16.290;2023-03-23T11:53:56;18.90;68.70
14095;DHT22;18096;48.142;16.290;2023-03-23T11:58:57;19.10;69.10
14095;DHT22;18096;48.142;16.290;2023-03-23T12:04:32;19.20;68.80
14095;DHT22;18096;48.142;16.290;2023-03-23T12:09:33;19.30;67.00
14095;DHT22;18096;48.142;16.290;2023-03-23T12:12:28;19.40;66.90
14095;DHT22;18096;48.142;16.290;2023-03-23T12:23:32;19.50;66.30
14095;DHT22;18096;48.142;16.290;2023-03-23T12:45:02;19.70;65.10
14095;DHT22;18096;48.142;16.290;2023-03-23T12:47:48;19.80;64.70
14095;DHT22;18096;48.142;16.290;2023-03-23T12:53:13;19.80;64.50
14095;DHT22;18096;48.142;16.290;2023-03-23T12:56:02;19.90;64.70
14095;DHT22;18096;48.142;16.290;2023-03-23T12:58:33;19.90;64.10
14095;DHT22;18096;48.142;16.290;2023-03-23T13:01:07;19.90;64.00
14095;DHT22;18096;48.142;16.290;2023-03-23T13:03:40;19.90;63.50
14095;DHT22;18096;48.142;16.290;2023-03-23T13:11:43;19.90;63.80
14095;DHT22;18096;48.142;16.290;2023-03-23T13:19:30;20.00;64.00
14095;DHT22;18096;48.142;16.290;2023-03-23T13:24:56;20.10;62.40
14095;DHT22;18096;48.142;16.290;2023-03-23T13:27:24;20.20;62.10
14095;DHT22;18096;48.142;16.290;2023-03-23T13:29:55;20.20;62.10
14095;DHT22;18096;48.142;16.290;2023-03-23T13:32:34;20.30;62.80
14095;DHT22;18096;48.142;16.290;2023-03-23T13:35:03;20.30;62.20
14095;DHT22;18096;48.142;16.290;2023-03-23T13:37:29;20.40;62.30
14095;DHT22;18096;48.142;16.290;2023-03-23T13:40:26;20.40;62.50
14095;DHT22;18096;48.142;16.290;2023-03-23T13:42:58;20.40;62.00
14095;DHT22;18096;48.142;16.290;2023-03-23T13:51:00;20.50;62.70
14095;DHT22;18096;48.142;16.290;2023-03-23T13:53:30;20.50;62.60
14095;DHT22;18096;48.142;16.290;2023-03-23T13:58:31;20.50;62.90
14095;DHT22;18096;48.142;16.290;2023-03-23T14:03:40;20.50;62.00
14095;DHT22;18096;48.142;16.290;2023-03-23T14:06:14;20.60;62.00
14095;DHT22;18096;48.142;16.290;2023-03-23T14:08:43;20.60;62.30
14095;DHT22;18096;48.142;16.290;2023-03-23T14:19:03;20.70;61.10
14095;DHT22;18096;48.142;16.290;2023-03-23T14:21:49;20.80;61.30
14095;DHT22;18096;48.142;16.290;2023-03-23T14:26:50;20.90;60.90
14095;DHT22;18096;48.142;16.290;2023-03-23T14:29:18;20.90;59.60
14095;DHT22;18096;48.142;16.290;2023-03-23T14:31:44;20.90;59.80
14095;DHT22;18096;48.142;16.290;2023-03-23T14:34:15;20.90;59.50
14095;DHT22;18096;48.142;16.290;2023-03-23T14:36:43;20.90;59.30
14095;DHT22;18096;48.142;16.290;2023-03-23T14:39:22;20.90;59.00
14095;DHT22;18096;48.142;16.290;2023-03-23T14:41:49;20.90;57.70
14095;DHT22;18096;48.142;16.290;2023-03-23T14:44:31;20.90;57.70
14095;DHT22;18096;48.142;16.290;2023-03-23T14:47:04;20.90;57.90
14095;DHT22;18096;48.142;16.290;2023-03-23T14:49:38;20.80;57.50
14095;DHT22;18096;48.142;16.290;2023-03-23T14:52:12;20.80;57.50
14095;DHT22;18096;48.142;16.290;2023-03-23T14:54:38;20.80;56.40
14095;DHT22;18096;48.142;16.290;2023-03-23T14:59:49;20.80;56.40
14095;DHT22;18096;48.142;16.290;2023-03-23T15:04:48;20.80;56.20
14095;DHT22;18096;48.142;16.290;2023-03-23T15:07:15;20.90;56.50
14095;DHT22;18096;48.142;16.290;2023-03-23T15:09:44;20.90;56.90
14095;DHT22;18096;48.142;16.290;2023-03-23T15:12:22;20.90;56.90
14095;DHT22;18096;48.142;16.290;2023-03-23T15:14:55;20.90;57.40
14095;DHT22;18096;48.142;16.290;2023-03-23T15:17:30;20.90;57.70
14095;DHT22;18096;48.142;16.290;2023-03-23T15:19:57;20.80;57.70
14095;DHT22;18096;48.142;16.290;2023-03-23T15:22:25;20.80;58.10
14095;DHT22;18096;48.142;16.290;2023-03-23T15:24:53;20.80;58.10
14095;DHT22;18096;48.142;16.290;2023-03-23T15:27:39;20.80;57.90
14095;DHT22;18096;48.142;16.290;2023-03-23T15:30:32;20.80;57.70
14095;DHT22;18096;48.142;16.290;2023-03-23T15:33:09;20.70;57.50
14095;DHT22;18096;48.142;16.290;2023-03-23T15:35:38;20.70;57.80
14095;DHT22;18096;48.142;16.290;2023-03-23T15:38:14;20.60;57.50
14095;DHT22;18096;48.142;16.290;2023-03-23T15:40:42;20.50;56.90
14095;DHT22;18096;48.142;16.290;2023-03-23T15:43:30;20.40;56.60
14095;DHT22;18096;48.142;16.290;2023-03-23T15:45:57;20.40;56.90
14095;DHT22;18096;48.142;16.290;2023-03-23T15:51:21;20.30;56.60
14095;DHT22;18096;48.142;16.290;2023-03-23T15:53:48;20.20;56.60
14095;DHT22;18096;48.142;16.290;2023-03-23T15:56:15;20.20;57.10
14095;DHT22;18096;48.142;16.290;2023-03-23T15:58:41;20.10;57.30
14095;DHT22;18096;48.142;16.290;2023-03-23T16:01:22;20.10;57.30
14095;DHT22;18096;48.142;16.290;2023-03-23T16:04:12;20.10;57.00
14095;DHT22;18096;48.142;16.290;2023-03-23T16:06:39;20.00;57.20
14095;DHT22;18096;48.142;16.290;2023-03-23T16:09:06;20.00;57.80
14095;DHT22;18096;48.142;16.290;2023-03-23T16:11:35;19.90;58.10
14095;DHT22;18096;48.142;16.290;2023-03-23T16:14:01;19.90;58.50
14095;DHT22;18096;48.142;16.290;2023-03-23T16:16:30;19.80;59.00
14095;DHT22;18096;48.142;16.290;2023-03-23T16:18:57;19.80;59.30
14095;DHT22;18096;48.142;16.290;2023-03-23T16:21:23;19.80;59.50
14095;DHT22;18096;48.142;16.290;2023-03-23T16:23:48;19.70;59.60
14095;DHT22;18096;48.142;16.290;2023-03-23T16:26:15;19.70;59.70
14095;DHT22;18096;48.142;16.290;2023-03-23T16:28:41;19.60;60.00
14095;DHT22;18096;48.142;16.290;2023-03-23T16:31:07;19.50;60.00
14095;DHT22;18096;48.142;16.290;2023-03-23T16:33:33;19.50;60.30
14095;DHT22;18096;48.142;16.290;2023-03-23T16:35:58;19.50;60.20
14095;DHT22;18096;48.142;16.290;2023-03-23T16:38:24;19.40;59.80
14095;DHT22;18096;48.142;16.290;2023-03-23T16:40:50;19.40;59.70
14095;DHT22;18096;48.142;16.290;2023-03-23T16:43:16;19.30;59.60
14095;DHT22;18096;48.142;16.290;2023-03-23T16:45:44;19.20;59.40
14095;DHT22;18096;48.142;16.290;2023-03-23T16:48:12;19.20;59.30
14095;DHT22;18096;48.142;16.290;2023-03-23T16:50:38;19.20;59.50
14095;DHT22;18096;48.142;16.290;2023-03-23T16:53:05;19.10;59.70
14095;DHT22;18096;48.142;16.290;2023-03-23T16:55:32;19.10;59.80
14095;DHT22;18096;48.142;16.290;2023-03-23T16:57:58;19.00;59.70
14095;DHT22;18096;48.142;16.290;2023-03-23T17:00:25;19.00;59.80
14095;DHT22;18096;48.142;16.290;2023-03-23T17:02:52;18.90;60.10
14095;DHT22;18096;48.142;16.290;2023-03-23T17:05:24;18.80;60.30
14095;DHT22;18096;48.142;16.290;2023-03-23T17:07:51;18.80;60.60
14095;DHT22;18096;48.142;16.290;2023-03-23T17:10:19;18.70;60.60
14095;DHT22;18096;48.142;16.290;2023-03-23T17:12:46;18.70;60.80
14095;DHT22;18096;48.142;16.290;2023-03-23T17:15:12;18.60;61.10
14095;DHT22;18096;48.142;16.290;2023-03-23T17:17:38;18.50;61.30
14095;DHT22;18096;48.142;16.290;2023-03-23T17:20:04;18.50;61.50
14095;DHT22;18096;48.142;16.290;2023-03-23T17:22:30;18.40;61.70
14095;DHT22;18096;48.142;16.290;2023-03-23T17:24:56;18.40;61.80
14095;DHT22;18096;48.142;16.290;2023-03-23T17:27:23;18.30;61.90
14095;DHT22;18096;48.142;16.290;2023-03-23T17:29:50;18.30;62.20
14095;DHT22;18096;48.142;16.290;2023-03-23T17:32:16;18.20;62.50
14095;DHT22;18096;48.142;16.290;2023-03-23T17:34:41;18.20;62.80
14095;DHT22;18096;48.142;16.290;2023-03-23T17:37:07;18.10;62.80
14095;DHT22;18096;48.142;16.290;2023-03-23T17:39:34;18.10;63.00
14095;DHT22;18096;48.142;16.290;2023-03-23T17:42:00;18.00;63.30
14095;DHT22;18096;48.142;16.290;2023-03-23T17:44:26;18.00;63.60
14095;DHT22;18096;48.142;16.290;2023-03-23T17:46:52;17.90;63.50